createdAt,value
2017-06-27T00:01:41.884Z,63.10
2017-06-27T00:04:10.098Z,62.20
2017-06-27T00:06:37.527Z,62.20
2017-06-27T00:09:04.973Z,63.00
2017-06-27T00:11:33.167Z,62.30
2017-06-27T00:14:00.601Z,62.20
2017-06-27T00:16:28.800Z,62.20
2017-06-27T00:18:56.237Z,62.10
2017-06-27T00:21:24.443Z,61.40
2017-06-27T00:23:51.876Z,61.30
2017-06-27T00:26:19.312Z,62.10
2017-06-27T00:28:47.515Z,60.80
2017-06-27T00:31:14.952Z,60.80
2017-06-27T00:33:43.166Z,60.60
2017-06-27T00:36:10.584Z,60.50
2017-06-27T00:38:38.787Z,61.00
2017-06-27T00:41:06.220Z,61.00
2017-06-27T00:43:34.429Z,60.40
2017-06-27T00:46:01.860Z,60.40
2017-06-27T00:48:29.287Z,61.00
2017-06-27T00:50:57.501Z,61.60
2017-06-27T00:53:24.933Z,60.80
2017-06-27T00:55:53.133Z,60.20
2017-06-27T00:58:20.563Z,60.20
2017-06-27T01:00:48.767Z,61.20
2017-06-27T01:03:16.200Z,61.10
2017-06-27T01:05:44.402Z,60.80
2017-06-27T01:08:11.825Z,60.80
2017-06-27T01:10:40.035Z,60.80
2017-06-27T01:13:07.480Z,60.60
2017-06-27T01:15:34.926Z,61.60
2017-06-27T01:18:02.358Z,60.60
2017-06-27T01:20:30.564Z,61.90
2017-06-27T01:22:58.000Z,61.30
2017-06-27T01:25:26.211Z,61.60
2017-06-27T01:27:53.648Z,61.60
2017-06-27T01:30:21.084Z,61.10
2017-06-27T01:32:49.289Z,60.80
2017-06-27T01:35:16.724Z,60.70
2017-06-27T01:37:44.941Z,61.20
2017-06-27T01:40:12.376Z,61.20
2017-06-27T01:42:39.823Z,61.30
2017-06-27T01:45:07.260Z,61.60
2017-06-27T01:47:41.342Z,60.70
2017-06-27T01:50:08.838Z,60.70
2017-06-27T01:52:37.031Z,61.20
2017-06-27T01:55:04.482Z,61.20
2017-06-27T01:57:32.681Z,61.00
2017-06-27T02:00:00.120Z,60.90
2017-06-27T02:02:27.555Z,61.30
2017-06-27T02:04:55.748Z,62.10
2017-06-27T02:07:23.188Z,62.00
2017-06-27T02:09:51.398Z,62.10
2017-06-27T02:12:18.840Z,62.00
2017-06-27T02:14:46.272Z,62.00
2017-06-27T02:17:14.541Z,62.10
2017-06-27T02:19:42.824Z,61.90
2017-06-27T02:22:11.034Z,61.80
2017-06-27T02:24:38.556Z,61.70
2017-06-27T02:27:06.771Z,62.50
2017-06-27T02:29:34.199Z,62.40
2017-06-27T02:32:01.646Z,62.30
2017-06-27T02:34:29.844Z,62.40
2017-06-27T02:36:57.284Z,62.40
2017-06-27T02:39:24.729Z,62.90
2017-06-27T02:41:52.933Z,63.10
2017-06-27T02:44:20.373Z,63.10
2017-06-27T02:46:47.808Z,63.40
2017-06-27T02:49:15.244Z,63.60
2017-06-27T02:51:42.680Z,63.60
2017-06-27T02:54:10.120Z,63.60
2017-06-27T02:56:37.640Z,63.90
2017-06-27T02:59:05.843Z,64.40
2017-06-27T03:01:33.276Z,64.30
2017-06-27T03:04:01.476Z,65.30
2017-06-27T03:06:28.910Z,64.80
2017-06-27T03:08:57.192Z,64.70
2017-06-27T03:11:25.392Z,65.00
2017-06-27T03:13:52.916Z,65.00
2017-06-27T03:16:21.120Z,65.10
2017-06-27T03:18:48.556Z,65.10
2017-06-27T03:21:16.766Z,65.40
2017-06-27T03:23:44.208Z,65.40
2017-06-27T03:26:11.645Z,65.60
2017-06-27T03:28:39.912Z,66.10
2017-06-27T03:31:08.119Z,66.20
2017-06-27T03:33:35.567Z,66.10
2017-06-27T03:36:03.001Z,66.20
2017-06-27T03:38:31.205Z,66.30
2017-06-27T03:40:58.644Z,66.20
2017-06-27T03:43:26.836Z,66.90
2017-06-27T03:45:54.275Z,66.90
2017-06-27T03:48:21.712Z,67.00
2017-06-27T03:50:49.934Z,67.00
2017-06-27T03:53:17.519Z,67.00
2017-06-27T03:55:44.940Z,67.10
2017-06-27T03:58:12.376Z,67.10
2017-06-27T04:00:39.820Z,67.10
2017-06-27T04:03:08.015Z,66.90
2017-06-27T04:05:35.456Z,66.90
2017-06-27T04:08:03.656Z,67.20
2017-06-27T04:10:31.101Z,67.20
2017-06-27T04:12:58.532Z,66.90
2017-06-27T04:15:25.967Z,67.00
2017-06-27T04:17:53.404Z,67.00
2017-06-27T04:20:20.912Z,67.10
2017-06-27T04:22:49.116Z,66.60
2017-06-27T04:25:16.556Z,66.60
2017-06-27T04:27:43.994Z,67.00
2017-06-27T04:30:12.297Z,67.70
2017-06-27T04:32:39.736Z,66.90
2017-06-27T04:35:07.940Z,67.00
2017-06-27T04:37:35.376Z,66.90
2017-06-27T04:40:03.569Z,67.50
2017-06-27T04:42:31.017Z,67.40
2017-06-27T04:44:58.452Z,67.20
2017-06-27T04:47:26.652Z,67.70
2017-06-27T04:49:54.088Z,67.00
2017-06-27T04:52:22.308Z,67.30
2017-06-27T04:54:49.759Z,67.30
2017-06-27T04:57:17.176Z,67.00
2017-06-27T04:59:45.377Z,67.10
2017-06-27T05:02:12.811Z,67.10
2017-06-27T05:04:40.248Z,66.90
2017-06-27T05:07:07.687Z,66.80
2017-06-27T05:09:35.123Z,67.30
2017-06-27T05:12:02.570Z,66.70
2017-06-27T05:14:30.005Z,66.70
2017-06-27T05:16:57.444Z,66.80
2017-06-27T05:19:25.643Z,66.30
2017-06-27T05:21:53.095Z,66.30
2017-06-27T05:24:20.519Z,66.40
2017-06-27T05:26:47.951Z,66.20
2017-06-27T05:29:15.386Z,66.00
2017-06-27T05:31:42.829Z,66.00
2017-06-27T05:34:10.264Z,65.70
2017-06-27T05:36:37.693Z,66.00
2017-06-27T05:39:05.128Z,65.90
2017-06-27T05:41:32.559Z,65.90
2017-06-27T05:44:00.002Z,66.00
2017-06-27T05:46:27.427Z,65.70
2017-06-27T05:48:54.893Z,65.00
2017-06-27T05:51:23.093Z,65.70
2017-06-27T05:53:50.535Z,65.00
2017-06-27T05:56:18.727Z,65.10
2017-06-27T05:58:46.164Z,65.10
2017-06-27T06:01:14.360Z,64.80
2017-06-27T06:03:41.808Z,64.80
2017-06-27T06:06:09.236Z,64.30
2017-06-27T06:08:36.664Z,64.20
2017-06-27T06:11:04.103Z,63.80
2017-06-27T06:13:31.543Z,63.70
2017-06-27T06:15:58.963Z,64.20
2017-06-27T06:18:27.173Z,64.60
2017-06-27T06:20:54.603Z,63.80
2017-06-27T06:23:23.808Z,62.60
2017-06-27T06:25:52.004Z,62.60
2017-06-27T06:28:19.456Z,62.50
2017-06-27T06:30:46.879Z,63.30
2017-06-27T06:33:15.077Z,62.50
2017-06-27T06:35:42.516Z,62.70
2017-06-27T06:38:09.937Z,62.60
2017-06-27T06:40:37.375Z,62.30
2017-06-27T06:43:04.804Z,62.50
2017-06-27T06:45:32.236Z,62.40
2017-06-27T06:48:00.441Z,62.30
2017-06-27T06:50:27.864Z,62.70
2017-06-27T06:52:55.292Z,62.60
2017-06-27T06:55:22.732Z,62.00
2017-06-27T06:57:50.160Z,62.10
2017-06-27T07:00:17.612Z,62.50
2017-06-27T07:02:45.041Z,62.60
2017-06-27T07:05:12.509Z,62.10
2017-06-27T07:07:40.707Z,62.50
2017-06-27T07:10:08.136Z,62.20
2017-06-27T07:12:35.564Z,60.70
2017-06-27T07:15:03.001Z,61.00
2017-06-27T07:17:30.423Z,61.00
2017-06-27T07:19:58.617Z,62.80
2017-06-27T07:22:26.051Z,62.80
2017-06-27T07:24:54.248Z,62.80
2017-06-27T07:27:21.679Z,62.70
2017-06-27T07:29:49.875Z,63.30
2017-06-27T07:32:17.308Z,63.30
2017-06-27T07:34:45.495Z,64.10
2017-06-27T07:37:12.932Z,64.10
2017-06-27T07:39:40.365Z,63.80
2017-06-27T07:42:07.800Z,63.30
2017-06-27T07:44:35.228Z,63.00
2017-06-27T07:47:02.668Z,61.20
2017-06-27T07:49:30.861Z,61.70
2017-06-27T07:51:58.296Z,61.70
2017-06-27T07:54:26.488Z,61.90
2017-06-27T07:56:53.920Z,62.30
2017-06-27T07:59:22.116Z,62.80
2017-06-27T08:01:49.549Z,62.00
2017-06-27T08:04:17.743Z,63.10
2017-06-27T08:06:45.181Z,62.50
2017-06-27T08:09:12.606Z,62.60
2017-06-27T08:11:40.032Z,61.60
2017-06-27T08:14:07.471Z,61.80
2017-06-27T08:16:34.905Z,62.70
2017-06-27T08:19:02.340Z,62.80
2017-06-27T08:21:29.772Z,62.20
2017-06-27T08:23:57.208Z,62.10
2017-06-27T08:26:24.636Z,62.10
2017-06-27T08:28:52.840Z,63.30
2017-06-27T08:31:20.268Z,63.30
2017-06-27T08:33:48.469Z,63.10
2017-06-27T08:36:15.896Z,63.00
2017-06-27T08:38:44.105Z,62.00
2017-06-27T08:41:11.532Z,62.00
2017-06-27T08:43:39.731Z,61.70
2017-06-27T08:46:07.165Z,61.60
2017-06-27T08:48:34.596Z,62.00
2017-06-27T08:51:02.023Z,62.50
2017-06-27T08:53:29.464Z,62.10
2017-06-27T08:55:56.900Z,61.30
2017-06-27T08:58:24.333Z,61.10
2017-06-27T09:00:51.766Z,60.70
2017-06-27T09:03:19.208Z,61.30
2017-06-27T09:05:46.640Z,60.40
2017-06-27T09:08:14.060Z,60.50
2017-06-27T09:10:41.501Z,60.10
2017-06-27T09:13:08.984Z,60.00
2017-06-27T09:15:37.188Z,59.40
2017-06-27T09:18:04.620Z,59.40
2017-06-27T09:20:32.072Z,59.80
2017-06-27T09:22:59.484Z,59.40
2017-06-27T09:25:26.932Z,58.90
2017-06-27T09:27:54.362Z,58.50
2017-06-27T09:30:21.795Z,58.80
2017-06-27T09:32:49.992Z,58.40
2017-06-27T09:35:17.420Z,58.40
2017-06-27T09:37:44.849Z,58.00
2017-06-27T09:40:12.283Z,58.30
2017-06-27T09:42:39.708Z,58.10
2017-06-27T09:45:07.150Z,58.50
2017-06-27T09:47:34.573Z,58.50
2017-06-27T09:50:02.015Z,59.10
2017-06-27T09:52:29.444Z,57.80
2017-06-27T09:54:56.908Z,58.00
2017-06-27T09:57:24.336Z,58.70
2017-06-27T09:59:52.528Z,57.40
2017-06-27T10:02:19.987Z,57.90
2017-06-27T10:04:47.413Z,56.90
2017-06-27T10:07:14.853Z,57.90
2017-06-27T10:09:42.300Z,57.70
2017-06-27T10:12:09.748Z,58.00
2017-06-27T10:14:37.171Z,58.10
2017-06-27T10:17:04.605Z,58.60
2017-06-27T10:19:32.028Z,59.40
2017-06-27T10:21:59.474Z,59.30
2017-06-27T10:24:26.887Z,59.90
2017-06-27T10:26:54.320Z,61.50
2017-06-27T10:29:21.748Z,61.00
2017-06-27T10:31:49.189Z,60.40
2017-06-27T10:34:16.617Z,60.80
2017-06-27T10:36:44.039Z,60.10
2017-06-27T10:39:11.469Z,59.50
2017-06-27T10:41:38.900Z,59.60
2017-06-27T10:44:06.325Z,59.40
2017-06-27T10:46:33.780Z,59.00
2017-06-27T10:49:01.200Z,58.80
2017-06-27T10:51:28.632Z,58.50
2017-06-27T10:53:56.072Z,58.80
2017-06-27T10:56:23.496Z,58.20
2017-06-27T10:58:50.928Z,58.20
2017-06-27T11:01:18.358Z,57.40
2017-06-27T11:03:45.787Z,57.80
2017-06-27T11:06:13.208Z,58.40
2017-06-27T11:08:40.644Z,58.40
2017-06-27T11:11:08.069Z,58.60
2017-06-27T11:13:35.499Z,57.80
2017-06-27T11:16:02.924Z,58.60
2017-06-27T11:18:30.365Z,57.80
2017-06-27T11:20:57.791Z,57.30
2017-06-27T11:23:25.219Z,57.50
2017-06-27T11:25:52.645Z,58.40
2017-06-27T11:28:20.073Z,58.20
2017-06-27T11:30:47.561Z,58.10
2017-06-27T11:33:15.029Z,59.30
2017-06-27T11:35:42.508Z,58.40
2017-06-27T11:38:09.932Z,59.60
2017-06-27T11:40:37.756Z,58.90
2017-06-27T11:43:05.191Z,58.20
2017-06-27T11:45:33.384Z,57.30
2017-06-27T11:48:00.808Z,57.30
2017-06-27T11:50:28.240Z,56.70
2017-06-27T11:52:55.668Z,56.30
2017-06-27T11:55:23.105Z,56.50
2017-06-27T11:57:50.539Z,57.00
2017-06-27T12:00:44.013Z,57.30
2017-06-27T12:03:23.249Z,57.00
2017-06-27T12:06:03.276Z,55.90
2017-06-27T12:08:30.707Z,55.90
2017-06-27T12:10:58.137Z,54.80
2017-06-27T12:13:25.564Z,54.00
2017-06-27T12:15:53.000Z,54.10
2017-06-27T12:18:20.436Z,54.20
2017-06-27T12:20:47.873Z,52.80
2017-06-27T12:23:34.480Z,53.30
2017-06-27T12:26:01.907Z,51.90
2017-06-27T12:28:30.100Z,52.10
2017-06-27T12:30:57.528Z,52.10
2017-06-27T12:33:25.725Z,49.60
2017-06-27T12:35:53.164Z,49.20
2017-06-27T12:38:21.347Z,50.50
2017-06-27T12:40:49.544Z,50.00
2017-06-27T12:43:16.969Z,50.00
2017-06-27T12:45:45.193Z,49.70
2017-06-27T12:48:12.604Z,49.60
2017-06-27T12:50:40.824Z,50.00
2017-06-27T12:53:08.252Z,50.40
2017-06-27T12:55:35.684Z,50.00
2017-06-27T12:58:03.887Z,51.80
2017-06-27T13:00:31.319Z,51.80
2017-06-27T13:02:58.746Z,50.50
2017-06-27T13:05:26.177Z,50.60
2017-06-27T13:07:53.620Z,51.40
2017-06-27T13:10:21.139Z,49.40
2017-06-27T13:12:48.612Z,50.40
2017-06-27T13:15:16.048Z,50.50
2017-06-27T13:17:43.480Z,50.50
2017-06-27T13:20:10.903Z,49.50
2017-06-27T13:22:38.333Z,49.40
2017-06-27T13:25:05.765Z,49.70
2017-06-27T13:27:33.188Z,50.60
2017-06-27T13:30:00.617Z,49.40
2017-06-27T13:32:28.049Z,48.50
2017-06-27T13:34:55.476Z,48.50
2017-06-27T13:37:22.923Z,48.90
2017-06-27T13:39:50.424Z,47.80
2017-06-27T13:42:18.628Z,49.10
2017-06-27T13:44:46.059Z,48.50
2017-06-27T13:47:14.372Z,48.50
2017-06-27T13:49:41.798Z,47.90
2017-06-27T13:52:09.228Z,47.60
2017-06-27T13:54:36.661Z,48.30
2017-06-27T13:57:04.186Z,48.90
2017-06-27T13:59:31.612Z,49.60
2017-06-27T14:01:59.035Z,48.80
2017-06-27T14:04:26.464Z,48.60
2017-06-27T14:06:53.898Z,48.40
2017-06-27T14:09:21.324Z,48.80
2017-06-27T14:11:48.744Z,48.90
2017-06-27T14:14:16.260Z,49.50
2017-06-27T14:16:43.680Z,49.10
2017-06-27T14:19:11.115Z,49.20
2017-06-27T14:21:38.579Z,48.60
2017-06-27T14:24:05.988Z,49.20
2017-06-27T14:26:33.416Z,48.80
2017-06-27T14:29:00.847Z,49.70
2017-06-27T14:31:28.273Z,50.00
2017-06-27T14:33:55.703Z,50.30
2017-06-27T14:36:23.128Z,49.60
2017-06-27T14:38:50.571Z,49.60
2017-06-27T14:41:17.997Z,49.70
2017-06-27T14:43:45.432Z,49.50
2017-06-27T14:46:12.866Z,49.80
2017-06-27T14:48:40.294Z,50.90
2017-06-27T14:51:07.716Z,50.40
2017-06-27T14:53:35.912Z,50.20
2017-06-27T14:56:03.345Z,50.20
2017-06-27T14:58:31.543Z,50.70
2017-06-27T15:00:58.972Z,50.60
2017-06-27T15:03:26.400Z,51.10
2017-06-27T15:05:53.845Z,51.00
2017-06-27T15:08:21.272Z,51.00
2017-06-27T15:10:48.704Z,50.70
2017-06-27T15:13:16.892Z,50.20
2017-06-27T15:15:44.328Z,50.20
2017-06-27T15:18:11.753Z,50.50
2017-06-27T15:20:39.186Z,51.10
2017-06-27T15:23:06.614Z,51.30
2017-06-27T15:25:34.045Z,50.70
2017-06-27T15:28:01.469Z,51.00
2017-06-27T15:30:28.906Z,51.70
2017-06-27T15:32:56.335Z,51.70
2017-06-27T15:35:23.768Z,51.50
2017-06-27T15:37:51.196Z,51.40
2017-06-27T15:40:18.630Z,51.10
2017-06-27T15:42:46.276Z,51.30
2017-06-27T15:45:13.729Z,51.60
2017-06-27T15:47:41.143Z,51.60
2017-06-27T15:50:08.572Z,51.60
2017-06-27T15:52:36.004Z,51.70
2017-06-27T15:55:03.428Z,52.00
2017-06-27T15:57:31.625Z,52.30
2017-06-27T15:59:59.055Z,52.40
2017-06-27T16:02:26.492Z,52.20
2017-06-27T16:04:53.968Z,52.30
2017-06-27T16:07:21.397Z,52.30
2017-06-27T16:09:48.821Z,52.50
2017-06-27T16:12:16.252Z,53.00
2017-06-27T16:14:43.677Z,52.50
2017-06-27T16:17:11.108Z,52.40
2017-06-27T16:19:38.540Z,53.00
2017-06-27T16:22:05.976Z,53.30
2017-06-27T16:24:33.396Z,54.70
2017-06-27T16:27:00.832Z,55.20
2017-06-27T16:29:28.260Z,56.30
2017-06-27T16:31:55.696Z,56.30
2017-06-27T16:34:23.120Z,56.00
2017-06-27T16:36:50.556Z,56.40
2017-06-27T16:39:17.992Z,57.50
2017-06-27T16:41:45.425Z,57.70
2017-06-27T16:44:12.857Z,58.60
2017-06-27T16:46:40.283Z,59.40
2017-06-27T16:49:07.719Z,58.90
2017-06-27T16:51:35.153Z,60.20
2017-06-27T16:54:02.580Z,60.30
2017-06-27T16:56:30.008Z,60.70
2017-06-27T16:58:57.436Z,61.20
2017-06-27T17:01:24.860Z,60.80
2017-06-27T17:03:52.328Z,61.80
2017-06-27T17:06:20.548Z,60.60
2017-06-27T17:08:47.959Z,60.60
2017-06-27T17:11:16.152Z,60.00
2017-06-27T17:13:43.596Z,60.00
2017-06-27T17:16:11.784Z,61.70
2017-06-27T17:18:39.216Z,61.70
2017-06-27T17:21:06.636Z,61.30
2017-06-27T17:23:34.068Z,61.00
2017-06-27T17:26:01.496Z,60.40
2017-06-27T17:28:28.924Z,61.00
2017-06-27T17:30:56.353Z,60.90
2017-06-27T17:33:23.796Z,61.40
2017-06-27T17:35:51.228Z,61.10
2017-06-27T17:38:19.424Z,61.30
2017-06-27T17:40:46.861Z,61.30
2017-06-27T17:43:15.053Z,60.70
2017-06-27T17:45:42.485Z,60.70
2017-06-27T17:48:10.684Z,57.70
2017-06-27T17:50:38.112Z,57.70
2017-06-27T17:53:06.306Z,57.70
2017-06-27T17:55:33.738Z,57.70
2017-06-27T17:58:01.160Z,57.30
2017-06-27T18:00:28.596Z,56.30
2017-06-27T18:02:56.065Z,56.10
2017-06-27T18:05:23.497Z,55.50
2017-06-27T18:07:50.924Z,55.60
2017-06-27T18:10:19.120Z,55.30
2017-06-27T18:12:46.543Z,55.30
2017-06-27T18:15:13.972Z,55.20
2017-06-27T18:17:41.717Z,55.00
2017-06-27T18:20:09.140Z,55.20
2017-06-27T18:22:36.570Z,55.40
2017-06-27T18:25:03.992Z,55.40
2017-06-27T18:27:31.425Z,55.20
2017-06-27T18:29:58.876Z,55.50
2017-06-27T18:32:26.308Z,55.60
2017-06-27T18:34:53.736Z,55.80
2017-06-27T18:37:21.173Z,55.90
2017-06-27T18:39:48.602Z,55.90
2017-06-27T18:42:16.034Z,56.30
2017-06-27T18:44:43.456Z,56.40
2017-06-27T18:47:10.888Z,56.80
2017-06-27T18:49:38.312Z,56.60
2017-06-27T18:52:06.512Z,57.10
2017-06-27T18:54:33.940Z,57.10
2017-06-27T18:57:02.151Z,57.70
2017-06-27T18:59:29.583Z,57.50
2017-06-27T19:01:57.016Z,57.50
2017-06-27T19:04:24.462Z,57.70
2017-06-27T19:06:51.892Z,58.20
2017-06-27T19:09:19.315Z,59.30
2017-06-27T19:11:46.748Z,58.90
2017-06-27T19:14:15.208Z,59.80
2017-06-27T19:16:42.640Z,59.30
2017-06-27T19:19:10.072Z,59.50
2017-06-27T19:21:37.501Z,59.80
2017-06-27T19:24:05.696Z,60.70
2017-06-27T19:26:33.136Z,60.70
2017-06-27T19:29:01.323Z,61.80
2017-06-27T19:31:28.864Z,61.10
2017-06-27T19:33:56.300Z,61.40
2017-06-27T19:36:23.800Z,61.70
2017-06-27T19:38:51.232Z,61.90
2017-06-27T19:41:18.657Z,62.30
2017-06-27T19:43:47.171Z,62.40
2017-06-27T19:46:15.479Z,62.70
2017-06-27T19:48:43.010Z,62.60
2017-06-27T19:51:11.196Z,63.30
2017-06-27T19:53:38.625Z,62.80
2017-06-27T19:56:06.052Z,63.30
2017-06-27T19:58:33.484Z,63.50
2017-06-27T20:01:01.008Z,63.60
2017-06-27T20:03:29.218Z,63.80
2017-06-27T20:05:57.413Z,63.50
2017-06-27T20:08:24.852Z,63.50
2017-06-27T20:10:52.276Z,63.40
2017-06-27T20:13:20.560Z,64.10
2017-06-27T20:15:48.739Z,64.10
2017-06-27T20:18:16.189Z,64.10
2017-06-27T20:20:43.601Z,64.00
2017-06-27T20:23:11.032Z,64.20
2017-06-27T20:25:38.456Z,64.20
2017-06-27T20:28:05.888Z,64.80
2017-06-27T20:30:33.324Z,64.40
2017-06-27T20:33:00.751Z,64.30
2017-06-27T20:35:28.283Z,64.30
2017-06-27T20:37:56.468Z,64.60
2017-06-27T20:40:23.904Z,64.50
2017-06-27T20:42:52.097Z,65.50
2017-06-27T20:45:19.529Z,65.00
2017-06-27T20:47:46.960Z,65.40
2017-06-27T20:50:15.418Z,65.30
2017-06-27T20:52:42.841Z,65.60
2017-06-27T20:55:10.263Z,65.60
2017-06-27T20:57:37.693Z,65.90
2017-06-27T21:00:05.120Z,65.70
2017-06-27T21:02:32.544Z,65.70
2017-06-27T21:04:59.980Z,65.90
2017-06-27T21:07:27.404Z,65.90
2017-06-27T21:09:54.836Z,66.10
2017-06-27T21:12:22.255Z,66.30
2017-06-27T21:14:49.736Z,66.30
2017-06-27T21:17:17.929Z,66.30
2017-06-27T21:19:45.380Z,66.40
2017-06-27T21:22:12.800Z,66.30
2017-06-27T21:24:40.231Z,66.30
2017-06-27T21:27:07.668Z,66.60
2017-06-27T21:29:35.093Z,66.90
2017-06-27T21:32:03.300Z,67.00
2017-06-27T21:34:30.724Z,67.00
2017-06-27T21:36:58.924Z,66.70
2017-06-27T21:39:26.344Z,66.60
2017-06-27T21:41:53.775Z,66.60
2017-06-27T21:44:21.220Z,66.80
2017-06-27T21:46:49.432Z,67.20
2017-06-27T21:49:16.921Z,67.20
2017-06-27T21:51:45.105Z,68.00
2017-06-27T21:54:12.541Z,67.50
2017-06-27T21:56:40.736Z,67.70
2017-06-27T21:59:08.167Z,67.60
2017-06-27T22:01:35.597Z,67.50
2017-06-27T22:04:03.020Z,67.50
2017-06-27T22:06:30.452Z,67.50
2017-06-27T22:08:57.876Z,67.50
2017-06-27T22:11:25.308Z,67.80
2017-06-27T22:13:52.752Z,67.80
2017-06-27T22:16:20.186Z,67.80
2017-06-27T22:18:47.608Z,67.80
2017-06-27T22:21:15.029Z,68.00
2017-06-27T22:23:42.465Z,68.00
2017-06-27T22:26:09.889Z,68.00
2017-06-27T22:28:37.316Z,68.10
